Time;durP1;ratioP1;P1;durP2;ratioP2;P2;SDS_P1;SDS_P2;PMS_P1;PMS_P2;Temp;Humidity;BMP_temperature;BMP_pressure;BME280_temperature;BME280_humidity;BME280_pressure;Samples;Min_cycle;Max_cycle;Signal;HPM_P1;HPM_P2
2022/04/07 00:00:59;;;;;;;1.90;1.80;;;;;;;9.71;100.00;95365.56;5032640;28;20222;-69
2022/04/07 00:03:25;;;;;;;2.17;1.80;;;;;;;9.65;100.00;95358.75;5033493;28;20183;-72
2022/04/07 00:05:51;;;;;;;1.60;1.50;;;;;;;9.62;100.00;95356.66;5032555;28;20191;-70
2022/04/07 00:08:16;;;;;;;1.73;1.63;;;;;;;9.58;100.00;95345.91;5033049;28;20179;-70
2022/04/07 00:10:41;;;;;;;1.80;1.70;;;;;;;9.54;100.00;95362.34;5033070;28;20183;-70
2022/04/07 00:13:07;;;;;;;1.43;1.43;;;;;;;9.52;100.00;95354.00;5032845;28;20183;-70
2022/04/07 00:15:32;;;;;;;2.00;1.80;;;;;;;9.50;100.00;95349.00;5032769;28;20225;-69
2022/04/07 00:17:58;;;;;;;1.70;1.60;;;;;;;9.53;100.00;95355.53;5032841;28;20178;-70
2022/04/07 00:20:26;;;;;;;1.90;1.80;;;;;;;9.42;100.00;95353.91;5032601;28;20197;-69
2022/04/07 00:22:52;;;;;;;1.40;1.40;;;;;;;9.41;100.00;95347.94;5033023;28;20552;-70
2022/04/07 00:25:18;;;;;;;1.70;1.63;;;;;;;9.40;100.00;95342.94;5033213;28;20197;-70
2022/04/07 00:27:44;;;;;;;1.63;1.63;;;;;;;9.34;100.00;95349.97;5032686;28;20194;-69
2022/04/07 00:30:13;;;;;;;1.73;1.63;;;;;;;9.29;100.00;95343.94;5032912;28;20182;-70
2022/04/07 00:32:42;;;;;;;1.77;1.77;;;;;;;9.27;100.00;95340.78;5033000;28;20301;-71
2022/04/07 00:35:08;;;;;;;1.80;1.70;;;;;;;9.27;100.00;95333.72;5032764;28;20289;-69
2022/04/07 00:37:34;;;;;;;1.83;1.73;;;;;;;9.32;100.00;95328.53;5032783;28;20213;-70
2022/04/07 00:39:59;;;;;;;1.67;1.67;;;;;;;9.38;100.00;95321.47;5032366;28;20264;-70
2022/04/07 00:42:24;;;;;;;1.67;1.60;;;;;;;9.28;100.00;95321.44;5032677;28;20626;-70
2022/04/07 00:44:50;;;;;;;1.70;1.60;;;;;;;9.25;100.00;95317.50;5032350;28;20299;-71
2022/04/07 00:47:15;;;;;;;2.77;1.63;;;;;;;9.37;100.00;95318.09;5032287;28;20187;-70
2022/04/07 00:49:40;;;;;;;1.80;1.80;;;;;;;9.38;100.00;95311.81;5033026;28;20179;-68
2022/04/07 00:52:08;;;;;;;1.80;1.70;;;;;;;9.33;100.00;95311.78;5032632;28;20711;-71
2022/04/07 00:54:34;;;;;;;1.80;1.70;;;;;;;9.42;100.00;95314.69;5032511;28;20195;-70
2022/04/07 00:57:01;;;;;;;1.50;1.50;;;;;;;9.31;100.00;95305.22;5032633;28;20183;-70
2022/04/07 00:59:27;;;;;;;1.50;1.50;;;;;;;9.41;100.00;95313.94;5032879;28;20280;-70
2022/04/07 01:01:53;;;;;;;2.03;1.93;;;;;;;9.44;100.00;95302.97;5032347;28;20257;-69
2022/04/07 01:04:18;;;;;;;1.40;1.40;;;;;;;9.45;100.00;95301.13;5033009;28;20240;-69
2022/04/07 01:06:44;;;;;;;1.80;1.70;;;;;;;9.35;100.00;95299.25;5032910;28;20214;-71
2022/04/07 01:09:11;;;;;;;1.93;1.83;;;;;;;9.27;100.00;95299.75;5032773;28;20186;-70
2022/04/07 01:11:40;;;;;;;1.90;1.80;;;;;;;9.33;100.00;95303.16;5033476;28;20244;-71
2022/04/07 01:14:06;;;;;;;2.00;1.90;;;;;;;9.24;100.00;95291.63;5033025;28;20194;-70
2022/04/07 01:16:32;;;;;;;2.20;2.10;;;;;;;9.08;100.00;95291.53;5032918;28;20230;-68
2022/04/07 01:18:59;;;;;;;2.20;2.10;;;;;;;9.11;100.00;95274.56;5033284;28;20270;-70
2022/04/07 01:21:25;;;;;;;2.17;2.07;;;;;;;9.02;100.00;95276.09;5033189;28;20232;-71
2022/04/07 01:24:00;;;;;;;2.10;2.00;;;;;;;8.94;100.00;95284.41;5033854;28;20314;-71
2022/04/07 01:26:26;;;;;;;2.03;1.93;;;;;;;8.94;100.00;95284.41;5036309;28;20190;-71
2022/04/07 01:28:51;;;;;;;2.07;1.97;;;;;;;8.98;100.00;95286.25;5036864;28;20187;-69
2022/04/07 01:31:17;;;;;;;2.50;2.30;;;;;;;9.09;100.00;95285.28;5018289;28;20277;-69
2022/04/07 01:33:43;;;;;;;2.10;2.00;;;;;;;9.11;100.00;95277.19;5036550;28;20286;-69
2022/04/07 01:36:11;;;;;;;2.20;2.10;;;;;;;9.12;100.00;95273.53;5018082;28;20230;-71
2022/04/07 01:38:37;;;;;;;2.10;2.00;;;;;;;9.16;100.00;95275.38;5036689;28;20265;-70
2022/04/07 01:41:02;;;;;;;2.33;2.13;;;;;;;9.16;100.00;95267.53;5036193;28;20282;-70
2022/04/07 01:43:29;;;;;;;2.73;2.57;;;;;;;9.24;100.00;95263.66;5036660;28;20204;-70
2022/04/07 01:45:54;;;;;;;2.53;2.33;;;;;;;9.22;100.00;95262.34;5035895;28;20183;-71
2022/04/07 01:48:20;;;;;;;2.37;2.27;;;;;;;9.15;100.00;95244.25;5036188;28;20182;-71
2022/04/07 01:50:47;;;;;;;2.07;2.07;;;;;;;9.12;100.00;95248.19;5036475;28;20183;-68
2022/04/07 01:53:13;;;;;;;2.20;2.10;;;;;;;9.03;100.00;95254.91;5018829;28;20209;-70
2022/04/07 01:55:40;;;;;;;2.60;2.50;;;;;;;9.06;100.00;95253.63;5035832;28;20297;-70
2022/04/07 01:58:05;;;;;;;2.87;2.70;;;;;;;9.00;100.00;95247.59;5035341;28;20278;-70
2022/04/07 02:00:31;;;;;;;2.47;2.37;;;;;;;8.93;100.00;95260.09;5035785;28;20194;-70
2022/04/07 02:02:56;;;;;;;2.50;2.40;;;;;;;8.90;100.00;95252.78;5035737;28;20179;-70
2022/04/07 02:05:22;;;;;;;2.37;2.27;;;;;;;9.00;100.00;95252.03;5035796;28;20553;-70
2022/04/07 02:07:48;;;;;;;2.33;2.20;;;;;;;8.97;100.00;95253.31;5035992;28;20175;-72
2022/04/07 02:10:15;;;;;;;2.30;2.20;;;;;;;8.98;100.00;95243.66;5018714;28;20198;-70
2022/04/07 02:12:42;;;;;;;2.37;2.27;;;;;;;8.84;100.00;95245.16;5035921;28;20266;-70
2022/04/07 02:15:09;;;;;;;2.40;2.30;;;;;;;8.81;100.00;95243.03;5035536;28;20246;-69
2022/04/07 02:17:34;;;;;;;3.00;2.80;;;;;;;8.96;100.00;95243.13;5035956;28;20260;-70
2022/04/07 02:20:03;;;;;;;2.73;2.60;;;;;;;8.93;100.00;95239.19;5017840;28;20186;-71
2022/04/07 02:22:28;;;;;;;2.53;2.43;;;;;;;8.90;100.00;95236.31;4997877;28;20175;-69
2022/04/07 02:24:56;;;;;;;2.23;2.17;;;;;;;8.94;100.00;95242.59;5032190;28;20190;-71
2022/04/07 02:27:21;;;;;;;2.70;2.50;;;;;;;8.98;100.00;95239.22;5035207;28;20214;-70
2022/04/07 02:29:47;;;;;;;3.10;2.80;;;;;;;8.96;100.00;95243.13;5034977;28;20206;-70
2022/04/07 02:32:12;;;;;;;2.63;2.47;;;;;;;8.91;100.00;95237.91;5034605;28;20183;-69
2022/04/07 02:34:39;;;;;;;2.30;2.20;;;;;;;8.82;100.00;95231.56;5034352;28;20297;-71
2022/04/07 02:37:04;;;;;;;2.27;2.17;;;;;;;8.82;100.00;95242.78;5034548;28;20675;-69
2022/04/07 02:39:29;;;;;;;2.40;2.30;;;;;;;8.86;100.00;95230.78;5017327;28;20179;-69
2022/04/07 02:41:55;;;;;;;2.70;2.60;;;;;;;8.90;100.00;95234.50;5016969;28;20191;-69
2022/04/07 02:44:21;;;;;;;2.30;2.20;;;;;;;8.71;100.00;95235.94;5034770;28;20178;-70
2022/04/07 02:46:46;;;;;;;3.50;2.47;;;;;;;8.77;100.00;95227.09;5034131;28;20186;-71
2022/04/07 02:49:12;;;;;;;4.07;2.40;;;;;;;8.74;100.00;95222.41;5017369;28;20187;-69
2022/04/07 02:51:37;;;;;;;2.17;2.07;;;;;;;8.83;100.00;95227.91;5034465;28;20257;-72
2022/04/07 02:54:03;;;;;;;2.60;2.50;;;;;;;8.81;100.00;95225.53;5034642;28;20182;-70
2022/04/07 02:56:28;;;;;;;2.40;2.33;;;;;;;8.82;100.00;95218.50;5034707;28;20206;-70
2022/04/07 02:58:55;;;;;;;2.40;2.30;;;;;;;8.86;100.00;95222.19;5034799;28;20194;-70
2022/04/07 03:01:20;;;;;;;2.40;2.30;;;;;;;9.03;100.00;95220.94;5034000;28;20618;-70
2022/04/07 03:03:46;;;;;;;1.90;1.90;;;;;;;9.01;100.00;95214.41;5034497;28;20198;-71
2022/04/07 03:06:12;;;;;;;2.20;2.10;;;;;;;8.90;100.00;95210.97;5035818;28;20182;-70
2022/04/07 03:08:37;;;;;;;2.40;2.30;;;;;;;8.98;100.00;95205.25;5033864;28;20178;-70
2022/04/07 03:11:05;;;;;;;2.20;2.10;;;;;;;8.98;99.22;95207.06;5035146;28;20199;-70
2022/04/07 03:13:31;;;;;;;2.10;2.00;;;;;;;8.95;99.04;95208.38;5035002;28;20179;-69
2022/04/07 03:15:57;;;;;;;1.80;1.80;;;;;;;8.94;99.02;95206.81;5035543;28;20574;-71
2022/04/07 03:18:22;;;;;;;2.70;1.87;;;;;;;9.02;98.99;95203.72;5034553;28;20308;-70
2022/04/07 03:20:47;;;;;;;1.60;1.60;;;;;;;8.88;98.01;95199.19;5034679;28;20646;-69
2022/04/07 03:23:13;;;;;;;1.50;1.50;;;;;;;8.85;97.23;95195.28;5034728;28;20235;-70
2022/04/07 03:25:38;;;;;;;1.70;1.60;;;;;;;8.84;96.80;95198.13;5033846;28;20669;-70
2022/04/07 03:28:06;;;;;;;1.50;1.40;;;;;;;8.84;96.54;95198.13;5033982;28;20744;-70
2022/04/07 03:30:31;;;;;;;1.20;1.20;;;;;;;8.82;95.19;95202.81;5033825;28;20174;-69
2022/04/07 03:32:57;;;;;;;1.27;1.10;;;;;;;8.86;94.61;95196.81;5016459;28;20345;-69
2022/04/07 03:35:22;;;;;;;1.17;1.10;;;;;;;8.89;94.67;95190.31;5033383;28;20745;-72
2022/04/07 03:37:47;;;;;;;1.30;1.30;;;;;;;8.94;94.28;95187.72;5033894;28;20175;-69
2022/04/07 03:40:13;;;;;;;1.20;1.20;;;;;;;9.07;93.80;95182.84;5015969;28;20660;-70
2022/04/07 03:42:38;;;;;;;1.47;1.40;;;;;;;9.04;93.78;95182.53;5033979;28;20183;-70
2022/04/07 03:45:04;;;;;;;1.00;1.00;;;;;;;9.01;93.90;95175.22;5015598;28;20197;-69
2022/04/07 03:47:30;;;;;;;1.43;1.40;;;;;;;8.93;94.21;95179.09;5032243;28;20186;-70
2022/04/07 03:49:56;;;;;;;1.33;1.23;;;;;;;8.95;95.83;95173.63;5033247;28;20621;-71
2022/04/07 03:52:21;;;;;;;1.53;1.43;;;;;;;8.93;95.61;95180.94;5033379;28;20182;-70
2022/04/07 03:54:47;;;;;;;1.30;1.20;;;;;;;8.75;97.00;95175.09;5033182;28;20210;-69
2022/04/07 03:57:12;;;;;;;2.30;1.40;;;;;;;8.70;97.08;95163.84;5034457;28;20201;-71
2022/04/07 03:59:39;;;;;;;1.57;1.57;;;;;;;8.78;96.83;95158.16;5033793;28;20231;-70
2022/04/07 04:02:06;;;;;;;1.30;1.30;;;;;;;8.74;96.32;95157.09;5015630;28;20329;-69
2022/04/07 04:04:32;;;;;;;1.43;1.40;;;;;;;8.71;96.48;95158.38;5015389;28;20210;-70
2022/04/07 04:06:57;;;;;;;1.60;1.50;;;;;;;8.60;97.28;95153.34;5033142;28;20210;-69
2022/04/07 04:09:22;;;;;;;1.40;1.40;;;;;;;8.56;96.14;95149.69;5033286;28;20182;-68
2022/04/07 04:11:48;;;;;;;1.40;1.30;;;;;;;8.65;95.89;95138.50;5033112;28;20253;-70
2022/04/07 04:14:13;;;;;;;1.37;1.27;;;;;;;8.58;96.70;95137.16;5033279;28;20210;-69
2022/04/07 04:16:39;;;;;;;1.30;1.20;;;;;;;8.58;96.27;95131.94;5015326;28;20220;-70
2022/04/07 04:19:05;;;;;;;1.63;1.57;;;;;;;8.56;96.04;95126.97;5032852;28;20195;-69
2022/04/07 04:21:31;;;;;;;1.70;1.60;;;;;;;8.52;97.02;95115.47;5015457;28;20228;-70
2022/04/07 04:23:56;;;;;;;1.40;1.40;;;;;;;8.44;96.76;95112.53;5033049;28;20544;-70
2022/04/07 04:26:21;;;;;;;1.50;1.50;;;;;;;8.55;96.04;95112.34;5033243;28;20636;-69
2022/04/07 04:28:47;;;;;;;1.47;1.47;;;;;;;8.55;95.46;95116.78;5033316;28;20190;-71
2022/04/07 04:31:12;;;;;;;1.30;1.20;;;;;;;8.53;94.91;95109.19;5033078;28;20197;-70
2022/04/07 04:33:38;;;;;;;1.13;1.07;;;;;;;8.65;94.44;95111.59;5033196;28;20558;-70
2022/04/07 04:36:03;;;;;;;1.40;1.30;;;;;;;8.61;93.90;95106.09;5015420;28;20217;-70
2022/04/07 04:38:29;;;;;;;1.10;1.10;;;;;;;8.68;93.75;95109.28;5033311;28;20679;-70
2022/04/07 04:40:54;;;;;;;1.30;1.30;;;;;;;8.69;93.38;95110.06;5032665;28;20202;-70
2022/04/07 04:43:20;;;;;;;1.30;1.20;;;;;;;8.68;92.49;95116.31;5032940;28;20191;-70
2022/04/07 04:45:45;;;;;;;1.23;1.23;;;;;;;8.76;92.27;95118.44;5033070;28;20198;-71
2022/04/07 04:48:10;;;;;;;1.37;1.27;;;;;;;8.79;91.96;95114.53;5033231;28;20186;-69
2022/04/07 04:50:36;;;;;;;1.57;1.47;;;;;;;8.76;91.50;95110.59;5033114;28;20194;-69
2022/04/07 04:53:01;;;;;;;1.30;1.30;;;;;;;8.84;91.29;95106.72;5014962;28;20182;-69
2022/04/07 04:55:27;;;;;;;1.10;1.10;;;;;;;8.73;91.54;95103.28;5015539;28;20195;-70
2022/04/07 04:57:52;;;;;;;1.20;1.00;;;;;;;8.74;91.54;95110.06;5016082;28;20191;-71
2022/04/07 05:00:18;;;;;;;1.17;1.17;;;;;;;8.77;92.27;95112.94;5018705;28;20179;-71
2022/04/07 05:02:43;;;;;;;1.17;1.17;;;;;;;8.88;91.50;95105.94;5037036;28;20234;-70
2022/04/07 05:05:09;;;;;;;1.17;1.17;;;;;;;8.88;90.98;95105.16;5036673;28;20256;-70
2022/04/07 05:07:34;;;;;;;1.40;1.30;;;;;;;8.88;90.67;95105.94;5036534;28;20652;-71
2022/04/07 05:10:00;;;;;;;1.07;1.07;;;;;;;8.96;89.75;95099.44;5036620;28;20690;-70
2022/04/07 05:12:26;;;;;;;1.20;1.20;;;;;;;9.00;89.30;95101.28;5036949;28;20290;-71
2022/04/07 05:14:52;;;;;;;3.20;1.20;;;;;;;8.90;89.14;95084.78;5036577;28;20289;-70
2022/04/07 05:17:19;;;;;;;1.20;1.20;;;;;;;8.99;89.31;95104.13;5018731;28;20278;-69
2022/04/07 05:19:45;;;;;;;1.17;1.17;;;;;;;9.03;89.40;95094.72;5035387;28;20183;-71
2022/04/07 05:22:11;;;;;;;1.30;1.30;;;;;;;8.91;90.98;95091.59;5035967;28;20198;-70
2022/04/07 05:24:36;;;;;;;1.20;1.10;;;;;;;8.95;91.56;95088.19;5018262;28;20175;-72
2022/04/07 05:27:02;;;;;;;1.10;1.10;;;;;;;9.04;91.57;95098.91;5035709;28;20236;-70
2022/04/07 05:29:27;;;;;;;1.53;1.33;;;;;;;8.98;92.16;95081.66;5035241;28;20187;-71
2022/04/07 05:31:52;;;;;;;1.50;1.20;;;;;;;8.93;91.19;95086.88;5035987;28;20262;-70
2022/04/07 05:34:18;;;;;;;1.20;1.13;;;;;;;9.00;91.68;95085.59;5036262;28;20182;-71
2022/04/07 05:36:43;;;;;;;2.40;1.30;;;;;;;9.09;92.06;95093.69;5018224;28;20191;-70
2022/04/07 05:39:09;;;;;;;1.40;1.20;;;;;;;9.20;90.60;95092.66;5036067;28;20191;-70
2022/04/07 05:41:34;;;;;;;1.90;1.30;;;;;;;9.25;89.94;95097.16;5035997;28;20210;-70
2022/04/07 05:43:59;;;;;;;1.20;1.20;;;;;;;9.45;89.86;95086.69;5035809;28;20277;-70
2022/04/07 05:46:25;;;;;;;0.90;0.90;;;;;;;9.47;88.09;95090.59;5035664;28;20629;-71
2022/04/07 05:48:50;;;;;;;1.10;1.10;;;;;;;9.44;87.94;95079.91;5035825;28;20195;-68
2022/04/07 05:51:15;;;;;;;1.20;1.20;;;;;;;9.32;87.82;95071.50;5035997;28;20241;-71
2022/04/07 05:53:41;;;;;;;1.13;1.00;;;;;;;9.46;87.71;95069.97;5035579;28;20660;-69
2022/04/07 05:56:07;;;;;;;1.50;1.23;;;;;;;9.58;86.67;95058.19;5035616;28;20193;-69
2022/04/07 05:58:32;;;;;;;1.00;1.00;;;;;;;9.53;86.50;95065.25;5036194;28;20202;-70
2022/04/07 06:00:57;;;;;;;0.90;0.90;;;;;;;9.85;85.53;95051.91;5034677;28;20229;-68
2022/04/07 06:03:23;;;;;;;0.90;0.90;;;;;;;10.45;83.24;95050.19;5034781;28;20183;-69
2022/04/07 06:05:52;;;;;;;2.43;0.90;;;;;;;10.90;81.07;95043.94;5035227;28;20191;-67
2022/04/07 06:08:19;;;;;;;1.07;0.97;;;;;;;10.98;78.51;95038.16;5035132;28;20174;-68
2022/04/07 06:10:44;;;;;;;0.90;0.90;;;;;;;11.44;77.24;95023.66;5034327;28;20215;-69
2022/04/07 06:13:11;;;;;;;0.90;0.90;;;;;;;11.18;76.83;95012.56;5035234;28;20592;-70
2022/04/07 06:15:39;;;;;;;0.90;0.90;;;;;;;10.91;77.29;95020.09;5017778;28;20244;-69
2022/04/07 06:18:05;;;;;;;2.97;0.77;;;;;;;10.78;77.80;95020.69;5035096;28;20183;-68
2022/04/07 06:20:32;;;;;;;0.70;0.70;;;;;;;10.92;77.48;94992.84;5034977;28;20270;-69
2022/04/07 06:22:57;;;;;;;0.80;0.80;;;;;;;10.76;77.57;95004.44;5034273;28;20209;-69
2022/04/07 06:25:23;;;;;;;0.73;0.73;;;;;;;10.86;77.77;94995.75;5034626;28;20695;-69
2022/04/07 06:27:49;;;;;;;0.87;0.87;;;;;;;10.94;76.47;94982.84;5034618;28;20179;-68
2022/04/07 06:30:19;;;;;;;0.70;0.70;;;;;;;10.73;76.74;95008.41;5033779;28;20187;-69
2022/04/07 06:32:45;;;;;;;0.60;0.60;;;;;;;10.67;76.49;94998.22;5002611;28;20340;-70
2022/04/07 06:35:12;;;;;;;0.93;0.93;;;;;;;10.56;76.50;95010.59;5034230;28;20198;-70
2022/04/07 06:37:56;;;;;;;0.80;0.80;;;;;;;10.49;76.98;95006.69;5034628;28;20193;-70
2022/04/07 06:40:29;;;;;;;0.80;0.80;;;;;;;10.52;77.59;94995.69;5033751;28;20539;-69
2022/04/07 06:42:56;;;;;;;0.70;0.70;;;;;;;10.51;77.12;95000.13;5033929;28;20193;-70
2022/04/07 06:45:22;;;;;;;2.93;0.80;;;;;;;10.36;77.63;94998.38;5033628;28;20174;-70
2022/04/07 06:47:47;;;;;;;0.67;0.67;;;;;;;10.49;77.41;94994.38;5034325;28;20186;-70
2022/04/07 06:50:15;;;;;;;0.70;0.70;;;;;;;10.48;76.34;94986.81;5016274;28;20544;-70
2022/04/07 06:52:41;;;;;;;0.63;0.63;;;;;;;10.27;76.67;94983.47;5014623;28;20183;-68
2022/04/07 06:55:09;;;;;;;0.70;0.70;;;;;;;10.46;76.01;94992.31;5033899;28;20206;-69
2022/04/07 06:57:48;;;;;;;0.60;0.60;;;;;;;10.52;76.03;94991.22;5015680;28;20602;-69
2022/04/07 07:00:14;;;;;;;0.70;0.70;;;;;;;10.66;74.77;94986.16;5016118;28;20183;-67
2022/04/07 07:02:40;;;;;;;0.83;0.83;;;;;;;10.48;76.15;94987.56;5015671;28;20238;-68
2022/04/07 07:05:08;;;;;;;1.17;0.90;;;;;;;10.67;78.73;94982.50;5033283;28;20186;-72
2022/04/07 07:07:34;;;;;;;1.10;1.10;;;;;;;11.94;81.67;94992.78;5015623;28;20182;-73
2022/04/07 07:09:59;;;;;;;1.17;0.77;;;;;;;11.43;74.01;94990.59;5028570;28;20269;-70
2022/04/07 07:12:24;;;;;;;0.80;0.80;;;;;;;11.16;74.50;94990.28;5021439;28;20521;-73
2022/04/07 07:14:50;;;;;;;0.80;0.80;;;;;;;10.91;74.84;94985.25;5030759;28;20665;-70
2022/04/07 07:17:15;;;;;;;1.37;0.93;;;;;;;10.83;74.23;94974.28;5015028;28;20669;-68
2022/04/07 07:19:40;;;;;;;0.80;0.80;;;;;;;10.93;74.70;94968.16;5032551;28;20522;-71
2022/04/07 07:22:06;;;;;;;0.80;0.80;;;;;;;11.00;74.27;94950.31;5031544;28;20187;-68
2022/04/07 07:24:31;;;;;;;1.70;1.10;;;;;;;11.16;73.88;94949.13;5027002;28;20305;-69
2022/04/07 07:26:56;;;;;;;0.63;0.63;;;;;;;11.19;73.50;94950.44;5032723;28;20197;-70
2022/04/07 07:29:22;;;;;;;0.70;0.70;;;;;;;11.09;73.51;94945.28;5032419;28;20248;-73
2022/04/07 07:31:47;;;;;;;0.93;0.87;;;;;;;11.21;73.25;94940.44;5032678;28;20213;-68
2022/04/07 07:34:13;;;;;;;1.00;1.00;;;;;;;11.38;72.78;94929.53;5015132;28;20241;-65
2022/04/07 07:36:38;;;;;;;1.00;1.00;;;;;;;11.46;72.79;94923.69;5032981;28;20210;-68
2022/04/07 07:39:03;;;;;;;1.60;0.90;;;;;;;11.30;72.31;94919.66;5014216;28;20190;-72
2022/04/07 07:41:29;;;;;;;0.80;0.80;;;;;;;11.39;71.26;94923.22;5032297;28;20178;-70
2022/04/07 07:43:54;;;;;;;0.73;0.73;;;;;;;11.67;70.12;94927.66;5032151;28;20202;-71
2022/04/07 07:46:20;;;;;;;0.60;0.60;;;;;;;11.85;69.20;94918.31;5031800;28;20183;-70
2022/04/07 07:48:46;;;;;;;1.50;0.93;;;;;;;11.99;69.20;94913.94;5014638;28;20191;-70
2022/04/07 07:51:11;;;;;;;0.70;0.70;;;;;;;12.16;68.64;94913.47;5032857;28;20603;-73
2022/04/07 07:53:37;;;;;;;0.80;0.80;;;;;;;12.03;68.88;94917.59;5031991;28;20210;-71
2022/04/07 07:56:03;;;;;;;2.97;0.90;;;;;;;12.03;69.76;94910.50;5032391;28;20206;-71
2022/04/07 07:58:28;;;;;;;0.70;0.70;;;;;;;12.08;69.01;94912.28;5032997;28;20179;-71
2022/04/07 08:00:56;;;;;;;0.93;0.73;;;;;;;12.18;69.32;94912.16;5014249;28;20299;-70
2022/04/07 08:03:22;;;;;;;0.90;0.90;;;;;;;11.96;69.38;94898.75;5031428;28;20221;-71
2022/04/07 08:05:48;;;;;;;0.87;0.70;;;;;;;12.02;70.23;94900.28;5032136;28;20183;-68
2022/04/07 08:08:13;;;;;;;2.13;0.80;;;;;;;12.12;68.83;94892.25;5031865;28;20205;-69
2022/04/07 08:10:39;;;;;;;1.80;0.73;;;;;;;11.91;69.36;94885.69;5032035;28;20771;-70
2022/04/07 08:13:05;;;;;;;4.00;0.90;;;;;;;11.76;69.40;94901.63;5032459;28;20350;-71
2022/04/07 08:15:31;;;;;;;0.80;0.80;;;;;;;11.90;69.37;94886.75;5032021;28;20209;-70
2022/04/07 08:17:57;;;;;;;1.00;0.80;;;;;;;11.88;69.03;94873.13;5032050;28;20620;-71
2022/04/07 08:20:23;;;;;;;6.70;0.80;;;;;;;12.20;68.01;94875.88;5032321;28;20189;-70
2022/04/07 08:22:48;;;;;;;0.53;0.53;;;;;;;12.04;68.20;94854.28;5032335;28;20640;-70
2022/04/07 08:25:14;;;;;;;0.63;0.63;;;;;;;12.07;68.17;94853.72;5032344;28;20222;-70
2022/04/07 08:27:39;;;;;;;0.70;0.70;;;;;;;12.31;68.09;94845.00;5031895;28;20225;-70
2022/04/07 08:30:05;;;;;;;0.80;0.80;;;;;;;12.33;67.38;94851.50;5032106;28;20182;-70
2022/04/07 08:32:33;;;;;;;0.70;0.70;;;;;;;12.49;67.01;94839.72;5032753;28;20305;-71
2022/04/07 08:34:58;;;;;;;3.07;0.90;;;;;;;12.71;66.27;94831.22;5036016;28;20590;-71
2022/04/07 08:37:24;;;;;;;1.07;0.80;;;;;;;12.51;66.67;94842.06;5035519;28;20189;-69
2022/04/07 08:39:51;;;;;;;0.80;0.80;;;;;;;12.35;66.98;94856.50;5018614;28;20186;-70
2022/04/07 08:42:20;;;;;;;1.20;0.70;;;;;;;12.43;67.31;94846.09;5036253;28;20190;-70
2022/04/07 08:44:46;;;;;;;0.77;0.77;;;;;;;12.59;66.60;94841.44;5035779;28;20354;-71
2022/04/07 08:47:14;;;;;;;0.70;0.70;;;;;;;12.38;66.99;94840.94;5035159;28;20273;-71
2022/04/07 08:49:42;;;;;;;0.60;0.60;;;;;;;12.39;66.83;94860.09;5035688;28;20262;-70
2022/04/07 08:52:08;;;;;;;0.63;0.63;;;;;;;12.39;66.41;94844.34;5036287;28;20198;-68
2022/04/07 08:54:34;;;;;;;0.60;0.60;;;;;;;12.39;66.86;94844.34;5035736;28;20183;-70
2022/04/07 08:56:59;;;;;;;0.80;0.80;;;;;;;12.61;66.41;94806.94;5035497;28;20277;-70
2022/04/07 08:59:24;;;;;;;0.70;0.70;;;;;;;12.50;66.81;94809.75;5035543;28;20546;-69
2022/04/07 09:01:50;;;;;;;0.73;0.67;;;;;;;12.65;65.68;94797.44;5035004;28;20387;-69
2022/04/07 09:04:15;;;;;;;0.63;0.63;;;;;;;12.57;65.83;94775.22;5018218;28;20200;-69
2022/04/07 09:06:42;;;;;;;1.60;0.70;;;;;;;12.35;66.40;94794.22;5017517;28;20193;-68
2022/04/07 09:09:14;;;;;;;0.60;0.60;;;;;;;12.25;66.03;94768.13;5018002;28;20183;-69
2022/04/07 09:11:40;;;;;;;0.60;0.60;;;;;;;12.37;66.12;94759.78;5035633;28;20282;-70
2022/04/07 09:14:09;;;;;;;0.70;0.70;;;;;;;12.38;65.61;94772.63;5035635;28;20288;-70
2022/04/07 09:16:39;;;;;;;0.63;0.63;;;;;;;12.43;65.50;94766.50;5034592;28;20218;-70
2022/04/07 09:19:05;;;;;;;1.53;0.57;;;;;;;12.30;65.40;94762.00;5035672;28;20194;-70
2022/04/07 09:21:31;;;;;;;0.60;0.60;;;;;;;12.41;65.42;94764.19;5035252;28;20178;-70
2022/04/07 09:24:00;;;;;;;0.60;0.60;;;;;;;12.41;65.46;94772.06;5035219;28;20559;-70
2022/04/07 09:26:27;;;;;;;0.60;0.60;;;;;;;12.45;65.68;94769.63;5017212;28;20567;-70
2022/04/07 09:28:56;;;;;;;0.50;0.50;;;;;;;12.64;65.38;94761.72;5034774;28;20218;-71
2022/04/07 09:31:22;;;;;;;3.40;0.80;;;;;;;12.58;65.27;94760.25;5033999;28;20194;-70
2022/04/07 09:33:53;;;;;;;0.50;0.50;;;;;;;12.83;64.87;94749.28;5034477;28;20198;-71
2022/04/07 09:36:21;;;;;;;0.60;0.60;;;;;;;12.81;65.20;94752.22;5034126;28;20229;-70
2022/04/07 09:38:55;;;;;;;0.70;0.70;;;;;;;12.73;66.44;94760.75;5034955;28;20201;-71
2022/04/07 09:41:22;;;;;;;1.90;1.43;;;;;;;12.60;65.37;94742.31;5016620;28;20206;-72
2022/04/07 09:43:58;;;;;;;0.60;0.60;;;;;;;12.42;66.52;94744.72;5034171;28;20175;-71
2022/04/07 09:46:26;;;;;;;0.70;0.70;;;;;;;12.42;68.62;94751.84;5013459;28;20273;-70
2022/04/07 09:49:20;;;;;;;0.60;0.60;;;;;;;12.46;69.65;94761.47;5033595;28;20683;-70
2022/04/07 09:51:50;;;;;;;1.70;0.73;;;;;;;12.47;68.47;94741.25;5017325;28;20551;-70
2022/04/07 09:54:18;;;;;;;1.33;1.10;;;;;;;12.53;67.92;94739.31;5034634;28;20533;-70
2022/04/07 09:56:45;;;;;;;0.77;0.77;;;;;;;12.59;66.76;94722.38;5033826;28;20735;-70
2022/04/07 09:59:14;;;;;;;0.70;0.70;;;;;;;13.16;65.74;94724.47;5034802;28;20198;-69
2022/04/07 10:01:39;;;;;;;0.60;0.60;;;;;;;13.62;65.00;94724.34;5016348;28;20767;-71
2022/04/07 10:04:06;;;;;;;0.80;0.80;;;;;;;13.71;63.57;94714.66;5033638;28;20214;-70
2022/04/07 10:06:35;;;;;;;1.07;0.50;;;;;;;14.06;62.87;94693.88;5034373;28;20183;-70
2022/04/07 10:09:04;;;;;;;0.63;0.63;;;;;;;13.82;62.67;94701.28;5016674;28;20190;-70
2022/04/07 10:11:32;;;;;;;0.90;0.90;;;;;;;14.32;61.53;94712.50;5033761;28;20195;-70
2022/04/07 10:13:58;;;;;;;0.83;0.70;;;;;;;14.25;61.67;94702.38;5033651;28;20187;-70
2022/04/07 10:16:25;;;;;;;0.87;0.70;;;;;;;14.44;61.39;94704.84;5034162;28;20687;-71
2022/04/07 10:18:58;;;;;;;0.80;0.80;;;;;;;14.18;61.49;94696.75;5034009;28;20217;-71
2022/04/07 10:21:48;;;;;;;0.90;0.90;;;;;;;14.26;60.97;94690.00;5034301;28;20183;-71
2022/04/07 10:24:37;;;;;;;1.80;0.80;;;;;;;14.48;60.32;94687.34;5026791;28;20551;-70
2022/04/07 10:27:09;;;;;;;0.60;0.60;;;;;;;14.18;61.26;94688.06;5034011;28;20182;-72
2022/04/07 10:29:37;;;;;;;3.00;0.70;;;;;;;13.83;61.02;94687.81;5033215;28;20219;-71
2022/04/07 10:32:11;;;;;;;0.60;0.60;;;;;;;13.93;61.09;94655.22;5033881;28;20189;-72
2022/04/07 10:34:52;;;;;;;0.60;0.60;;;;;;;14.07;60.46;94664.59;5033581;28;20253;-71
2022/04/07 10:37:29;;;;;;;5.47;0.60;;;;;;;14.18;59.87;94651.97;5034049;28;20171;-71
2022/04/07 10:39:54;;;;;;;2.37;0.60;;;;;;;14.12;59.97;94656.56;5033724;28;20248;-70
2022/04/07 10:42:59;;;;;;;2.90;0.77;;;;;;;14.22;60.07;94681.09;5033606;28;20191;-69
2022/04/07 10:45:34;;;;;;;0.60;0.43;;;;;;;14.28;59.72;94638.53;5033000;28;20195;-70
2022/04/07 10:48:18;;;;;;;0.50;0.50;;;;;;;13.99;60.52;94630.28;5033848;28;20232;-70
2022/04/07 10:51:04;;;;;;;0.50;0.50;;;;;;;13.95;60.59;94614.31;5033366;28;20175;-70
2022/04/07 10:53:41;;;;;;;0.70;0.70;;;;;;;13.85;61.11;94604.03;5033560;28;20190;-70
2022/04/07 10:56:21;;;;;;;0.60;0.60;;;;;;;14.05;60.67;94605.38;5031113;28;20213;-70
2022/04/07 10:58:54;;;;;;;0.50;0.50;;;;;;;13.95;60.93;94616.16;5033247;28;20225;-70
2022/04/07 11:01:28;;;;;;;0.50;0.50;;;;;;;13.72;61.53;94612.75;5012252;28;20587;-70
2022/04/07 11:04:19;;;;;;;0.50;0.50;;;;;;;13.76;61.58;94595.31;5013459;28;20206;-70
2022/04/07 11:07:08;;;;;;;0.60;0.60;;;;;;;14.15;60.72;94613.81;5013491;28;20302;-70
2022/04/07 11:10:03;;;;;;;1.70;1.27;;;;;;;14.14;60.40;94604.38;5000403;28;20199;-71
2022/04/07 11:12:39;;;;;;;3.20;0.60;;;;;;;14.38;60.14;94603.25;5013281;28;20175;-70
2022/04/07 11:15:04;;;;;;;0.60;0.60;;;;;;;14.29;59.91;94616.38;5013297;28;20210;-71
2022/04/07 11:17:31;;;;;;;1.20;0.70;;;;;;;14.37;59.38;94581.41;5012516;28;20186;-71
2022/04/07 11:20:20;;;;;;;0.57;0.57;;;;;;;14.52;58.32;94596.81;5013383;28;20180;-70
2022/04/07 11:22:54;;;;;;;0.50;0.50;;;;;;;14.28;58.92;94598.22;5013164;28;20171;-70
2022/04/07 11:25:21;;;;;;;0.50;0.50;;;;;;;14.66;58.39;94611.72;5012809;28;20532;-68
2022/04/07 11:28:02;;;;;;;0.60;0.60;;;;;;;14.99;57.61;94589.16;5012840;28;20211;-71
2022/04/07 11:30:40;;;;;;;1.90;0.47;;;;;;;14.94;57.12;94586.69;5012434;28;20183;-71
2022/04/07 11:33:20;;;;;;;0.60;0.60;;;;;;;14.70;57.70;94583.69;5012734;28;20182;-72
2022/04/07 11:36:02;;;;;;;0.70;0.70;;;;;;;14.84;57.96;94593.03;5012868;28;20286;-70
2022/04/07 11:38:41;;;;;;;0.50;0.50;;;;;;;14.84;57.86;94600.16;5012447;28;20179;-69